createdAt,value
2022-12-16T00:02:06.788Z,97722.81
2022-12-16T00:04:33.793Z,97747.72
2022-12-16T00:07:00.762Z,97747.59
2022-12-16T00:09:27.695Z,97752.78
2022-12-16T00:11:54.763Z,97752.06
2022-12-16T00:14:21.685Z,97763.59
2022-12-16T00:16:48.656Z,97753.84
2022-12-16T00:19:15.598Z,97756.25
2022-12-16T00:21:42.588Z,97755.94
2022-12-16T00:24:09.477Z,97766.13
2022-12-16T00:26:36.414Z,97771.97
2022-12-16T00:29:05.684Z,97765.28
2022-12-16T00:31:32.949Z,97754.19
2022-12-16T00:34:00.079Z,97744.56
2022-12-16T00:36:26.943Z,97743.84
2022-12-16T00:38:53.920Z,97732.84
2022-12-16T00:41:21.004Z,97734.38
2022-12-16T00:43:48.376Z,97732.72
2022-12-16T00:46:15.391Z,97739.13
2022-12-16T00:48:42.381Z,97745.94
2022-12-16T00:51:09.517Z,97737.16
2022-12-16T00:53:36.618Z,97741.63
2022-12-16T00:56:06.861Z,97746.06
2022-12-16T00:58:33.817Z,97739.38
2022-12-16T01:01:01.251Z,97733.56
2022-12-16T01:03:28.796Z,97731.19
2022-12-16T01:05:55.834Z,97730.78
2022-12-16T01:08:23.008Z,97725.34
2022-12-16T01:10:55.450Z,97716.19
2022-12-16T01:13:24.852Z,97723.81
2022-12-16T01:15:52.480Z,97715.59
2022-12-16T01:18:19.880Z,97696.25
2022-12-16T01:20:46.835Z,97690.69
2022-12-16T01:23:13.746Z,97700.16
2022-12-16T01:25:40.759Z,97700.44
2022-12-16T01:28:07.723Z,97696.25
2022-12-16T01:30:35.610Z,97686.78
2022-12-16T01:33:02.582Z,97683.59
2022-12-16T01:35:54.705Z,97669.97
2022-12-16T01:38:16.547Z,97675.66
2022-12-16T01:40:43.469Z,97679.00
2022-12-16T01:43:14.711Z,97684.88
2022-12-16T01:45:41.771Z,97682.34
2022-12-16T01:48:34.464Z,97668.97
2022-12-16T01:51:07.852Z,97653.38
2022-12-16T01:53:39.202Z,97639.19
2022-12-16T01:56:06.565Z,97636.97
2022-12-16T01:58:38.082Z,97616.78
2022-12-16T02:01:05.632Z,97634.34
2022-12-16T02:03:36.643Z,97636.56
2022-12-16T02:06:22.683Z,97642.41
2022-12-16T02:09:23.105Z,97632.25
2022-12-16T02:12:43.115Z,97615.53
2022-12-16T02:15:50.758Z,97622.38
2022-12-16T02:18:56.414Z,97617.63
2022-12-16T02:22:01.225Z,97604.00
2022-12-16T02:25:27.162Z,97595.94
2022-12-16T02:28:19.015Z,97596.06
2022-12-16T02:30:57.656Z,97599.97
2022-12-16T02:33:39.776Z,97586.75
2022-12-16T02:36:30.583Z,97591.75
2022-12-16T02:39:02.469Z,97585.50
2022-12-16T02:41:44.092Z,97582.84
2022-12-16T02:44:12.612Z,97540.03
2022-12-16T02:46:51.463Z,97572.28
2022-12-16T02:49:21.773Z,97575.75
2022-12-16T02:51:49.803Z,97575.09
2022-12-16T02:54:18.257Z,97565.47
2022-12-16T02:56:54.192Z,97570.47
2022-12-16T02:59:36.981Z,97554.06
2022-12-16T03:02:17.845Z,97562.13
2022-12-16T03:04:55.322Z,97566.56
2022-12-16T03:07:26.911Z,97573.28
2022-12-16T03:09:55.823Z,97555.34
2022-12-16T03:12:24.275Z,97563.38
2022-12-16T03:14:53.800Z,97563.50
2022-12-16T03:17:24.657Z,97564.94
2022-12-16T03:20:17.843Z,97557.69
2022-12-16T03:22:48.605Z,97535.84
2022-12-16T03:25:16.613Z,97538.34
2022-12-16T03:28:00.641Z,97541.81
2022-12-16T03:30:35.267Z,97531.25
2022-12-16T03:33:09.850Z,97521.63
2022-12-16T03:35:42.790Z,97493.41
2022-12-16T03:38:12.599Z,97507.75
2022-12-16T03:40:42.883Z,97505.53
2022-12-16T03:43:15.088Z,97495.38
2022-12-16T03:45:46.011Z,97483.97
2022-12-16T03:48:14.198Z,97491.50
2022-12-16T03:50:41.327Z,97500.97
2022-12-16T03:53:08.565Z,97487.34
2022-12-16T03:55:35.662Z,97493.72
2022-12-16T03:58:02.597Z,97484.94
2022-12-16T04:00:30.223Z,97481.47
2022-12-16T04:02:57.554Z,97479.81
2022-12-16T04:05:24.846Z,97462.84
2022-12-16T04:07:51.794Z,97484.94
2022-12-16T04:10:38.892Z,97477.56
2022-12-16T04:13:24.503Z,97477.97
2022-12-16T04:16:10.262Z,97478.56
2022-12-16T04:18:56.202Z,97469.19
2022-12-16T04:21:41.948Z,97468.09
2022-12-16T04:24:21.740Z,97468.09
2022-12-16T04:27:11.922Z,97450.69
2022-12-16T04:30:00.354Z,97470.31
2022-12-16T04:32:27.311Z,97471.69
2022-12-16T04:34:54.233Z,97476.84
2022-12-16T04:37:39.591Z,97477.94
2022-12-16T04:40:25.759Z,97493.50
2022-12-16T04:43:11.289Z,97489.75
2022-12-16T04:45:58.135Z,97483.50
2022-12-16T04:48:44.025Z,97477.22
2022-12-16T04:51:29.576Z,97476.44
2022-12-16T04:54:14.903Z,97490.59
2022-12-16T04:57:00.192Z,97489.47
2022-12-16T04:59:45.578Z,97484.88
2022-12-16T05:02:31.123Z,97478.03
2022-12-16T05:05:16.641Z,97477.75
2022-12-16T05:08:02.182Z,97468.38
2022-12-16T05:10:47.456Z,97469.94
2022-12-16T05:13:33.243Z,97460.31
2022-12-16T05:16:18.986Z,97458.22
2022-12-16T05:19:04.746Z,97464.63
2022-12-16T05:21:50.436Z,97461.28
2022-12-16T05:24:38.032Z,97458.94
2022-12-16T05:27:23.462Z,97450.44
2022-12-16T05:30:08.940Z,97452.91
2022-12-16T05:32:54.360Z,97455.25
2022-12-16T05:35:41.077Z,97446.25
2022-12-16T05:38:26.582Z,97443.19
2022-12-16T05:41:11.986Z,97439.25
2022-12-16T05:43:57.663Z,97450.81
2022-12-16T05:46:43.110Z,97452.88
2022-12-16T05:49:28.891Z,97447.19
2022-12-16T05:52:14.492Z,97434.94
2022-12-16T05:55:00.106Z,97428.97
2022-12-16T05:57:45.670Z,97437.44
2022-12-16T06:00:31.763Z,97432.59
2022-12-16T06:03:17.617Z,97450.97
2022-12-16T06:06:02.995Z,97455.72
2022-12-16T06:08:48.323Z,97452.38
2022-12-16T06:11:33.806Z,97445.44
2022-12-16T06:14:18.996Z,97441.81
2022-12-16T06:17:04.391Z,97426.91
2022-12-16T06:19:49.604Z,97422.03
2022-12-16T06:22:35.019Z,97409.50
2022-12-16T06:25:20.451Z,97421.44
2022-12-16T06:28:12.784Z,97412.81
2022-12-16T06:30:58.163Z,97406.41
2022-12-16T06:33:57.492Z,97401.50
2022-12-16T06:36:43.050Z,97418.72
2022-12-16T06:39:28.455Z,97424.00
2022-12-16T06:42:13.801Z,97432.91
2022-12-16T06:44:59.385Z,97421.28
2022-12-16T06:47:44.867Z,97406.69
2022-12-16T06:50:30.159Z,97408.50
2022-12-16T06:53:15.750Z,97383.22
2022-12-16T06:56:01.220Z,97423.78
2022-12-16T06:58:46.490Z,97426.97
2022-12-16T07:01:32.034Z,97423.34
2022-12-16T07:04:17.475Z,97426.81
2022-12-16T07:07:02.945Z,97416.25
2022-12-16T07:09:48.537Z,97408.25
2022-12-16T07:12:34.213Z,97403.53
2022-12-16T07:15:19.661Z,97392.81
2022-12-16T07:18:04.930Z,97380.66
2022-12-16T07:20:50.638Z,97384.00
2022-12-16T07:23:36.373Z,97387.91
2022-12-16T07:26:21.942Z,97389.28
2022-12-16T07:29:07.574Z,97400.91
2022-12-16T07:31:53.234Z,97397.16
2022-12-16T07:34:42.853Z,97398.53
2022-12-16T07:37:30.200Z,97383.94
2022-12-16T07:40:15.489Z,97381.56
2022-12-16T07:43:01.945Z,97384.31
2022-12-16T07:45:47.652Z,97384.16
2022-12-16T07:48:32.955Z,97370.44
2022-12-16T07:51:18.402Z,97367.16
2022-12-16T07:54:03.684Z,97374.78
2022-12-16T07:56:50.395Z,97379.47
2022-12-16T07:59:36.061Z,97373.63
2022-12-16T08:02:21.619Z,97374.69
2022-12-16T08:05:07.210Z,97375.53
2022-12-16T08:07:52.647Z,97367.13
2022-12-16T08:10:38.279Z,97365.38
2022-12-16T08:13:26.029Z,97377.63
2022-12-16T08:16:11.367Z,97378.81
2022-12-16T08:18:57.129Z,97387.66
2022-12-16T08:21:42.371Z,97386.00
2022-12-16T08:24:27.853Z,97387.50
2022-12-16T08:27:13.421Z,97386.00
2022-12-16T08:29:58.986Z,97400.91
2022-12-16T08:32:44.566Z,97393.03
2022-12-16T08:35:29.966Z,97405.28
2022-12-16T08:38:16.064Z,97404.81
2022-12-16T08:41:02.787Z,97402.41
2022-12-16T08:43:52.924Z,97407.47
2022-12-16T08:46:39.189Z,97402.84
2022-12-16T08:49:25.127Z,97410.75
2022-12-16T08:52:10.734Z,97424.84
2022-12-16T08:54:56.104Z,97428.84
2022-12-16T08:57:42.151Z,97430.38
2022-12-16T09:00:28.488Z,97434.81
2022-12-16T09:03:16.001Z,97443.56
2022-12-16T09:06:02.187Z,97448.38
2022-12-16T09:08:47.765Z,97457.03
2022-12-16T09:11:33.210Z,97458.84
2022-12-16T09:14:18.445Z,97456.56
2022-12-16T09:17:03.932Z,97456.16
2022-12-16T09:19:49.372Z,97456.72
2022-12-16T09:22:34.861Z,97467.06
2022-12-16T09:25:34.007Z,97466.47
2022-12-16T09:28:19.814Z,97460.03
2022-12-16T09:31:04.969Z,97472.22
2022-12-16T09:33:50.304Z,97467.25
2022-12-16T09:36:36.194Z,97466.13
2022-12-16T09:39:21.456Z,97480.38
2022-12-16T09:42:44.208Z,97473.09
2022-12-16T09:45:38.122Z,97478.94
2022-12-16T09:49:05.246Z,97491.63
2022-12-16T09:51:57.199Z,97493.59
2022-12-16T09:54:48.469Z,97499.38
2022-12-16T09:57:34.671Z,97506.41
2022-12-16T10:00:24.510Z,97499.09
2022-12-16T10:03:10.840Z,97496.41
2022-12-16T10:06:26.320Z,97495.78
2022-12-16T10:09:39.386Z,97489.75
2022-12-16T10:12:43.737Z,97484.22
2022-12-16T10:15:57.941Z,97485.78
2022-12-16T10:19:04.140Z,97488.47
2022-12-16T10:22:07.741Z,97485.78
2022-12-16T10:25:09.877Z,97477.47
2022-12-16T10:28:06.597Z,97458.91
2022-12-16T10:30:55.564Z,97477.75
2022-12-16T10:33:46.535Z,97482.38
2022-12-16T10:36:39.548Z,97478.66
2022-12-16T10:39:56.565Z,97481.19
2022-12-16T10:42:47.094Z,97483.13
2022-12-16T10:45:49.817Z,97483.75
2022-12-16T10:48:53.616Z,97492.34
2022-12-16T10:51:45.321Z,97474.00
2022-12-16T10:54:39.675Z,97493.13
2022-12-16T10:57:28.141Z,97494.19
2022-12-16T11:00:28.927Z,97485.06
2022-12-16T11:03:14.677Z,97482.16
2022-12-16T11:06:00.393Z,97477.59
2022-12-16T11:08:50.245Z,97478.63
2022-12-16T11:11:47.201Z,97482.22
2022-12-16T11:14:33.963Z,97473.41
2022-12-16T11:17:40.916Z,97466.34
2022-12-16T11:20:29.513Z,97457.41
2022-12-16T11:23:39.306Z,97471.22
2022-12-16T11:26:36.298Z,97500.50
2022-12-16T11:29:25.587Z,97502.31
2022-12-16T11:32:35.524Z,97494.53
2022-12-16T11:35:23.282Z,97501.72
2022-12-16T11:38:11.977Z,97499.78
2022-12-16T11:40:58.403Z,97486.53
2022-12-16T11:43:46.986Z,97487.16
2022-12-16T11:47:07.005Z,97486.44
2022-12-16T11:49:52.798Z,97495.97
2022-12-16T11:52:40.299Z,97503.69
2022-12-16T11:58:57.041Z,97510.22
2022-12-16T12:01:50.837Z,97509.41
2022-12-16T12:04:36.742Z,97539.16
2022-12-16T12:07:45.383Z,97526.50
2022-12-16T12:11:03.145Z,97520.97
2022-12-16T12:14:07.386Z,97488.56
2022-12-16T12:17:19.174Z,97514.28
2022-12-16T12:20:36.372Z,97523.53
2022-12-16T12:23:25.963Z,97521.19
2022-12-16T12:26:28.305Z,97531.41
2022-12-16T12:29:32.334Z,97557.53
2022-12-16T12:32:39.490Z,97551.97
2022-12-16T12:35:38.017Z,97559.16
2022-12-16T12:38:34.472Z,97566.19
2022-12-16T12:41:27.655Z,97564.91
2022-12-16T12:44:24.768Z,97575.34
2022-12-16T12:47:18.774Z,97560.25
2022-12-16T12:50:16.474Z,97559.00
2022-12-16T12:53:20.659Z,97575.13
2022-12-16T12:56:28.491Z,97583.34
2022-12-16T12:59:21.571Z,97585.00
2022-12-16T13:02:11.048Z,97581.69
2022-12-16T13:04:57.985Z,97574.66
2022-12-16T13:07:43.442Z,97577.75
2022-12-16T13:10:53.935Z,97586.31
2022-12-16T13:13:47.244Z,97592.81
2022-12-16T13:17:05.460Z,97596.25
2022-12-16T13:19:51.637Z,97600.91
2022-12-16T13:22:58.366Z,97605.66
2022-12-16T13:25:52.669Z,97611.63
2022-12-16T13:29:01.247Z,97625.44
2022-12-16T13:31:49.068Z,97625.13
2022-12-16T13:34:34.797Z,97632.75
2022-12-16T13:37:29.826Z,97612.19
2022-12-16T13:40:35.585Z,97640.63
2022-12-16T13:43:23.885Z,97645.03
2022-12-16T13:46:19.024Z,97650.34
2022-12-16T13:49:04.872Z,97669.09
2022-12-16T13:51:56.261Z,97665.63
2022-12-16T13:54:57.641Z,97665.75
2022-12-16T13:57:45.821Z,97661.59
2022-12-16T14:00:41.688Z,97666.06
2022-12-16T14:04:04.178Z,97676.50
2022-12-16T14:06:51.162Z,97674.84
2022-12-16T14:09:50.914Z,97669.13
2022-12-16T14:13:15.083Z,97672.09
2022-12-16T14:16:27.567Z,97675.13
2022-12-16T14:19:51.378Z,97677.19
2022-12-16T14:22:57.851Z,97648.06
2022-12-16T14:25:43.194Z,97675.47
2022-12-16T14:28:58.475Z,97680.34
2022-12-16T14:31:52.663Z,97660.28
2022-12-16T14:34:54.057Z,97655.28
2022-12-16T14:37:55.708Z,97683.81
2022-12-16T14:40:49.949Z,97689.97
2022-12-16T14:43:45.157Z,97697.50
2022-12-16T14:46:51.625Z,97698.47
2022-12-16T14:49:39.639Z,97711.41
2022-12-16T14:52:45.531Z,97711.00
2022-12-16T14:55:35.438Z,97726.72
2022-12-16T14:58:23.934Z,97745.97
2022-12-16T15:01:15.473Z,97743.56
2022-12-16T15:04:06.490Z,97753.31
2022-12-16T15:07:04.865Z,97751.38
2022-12-16T15:09:56.521Z,97759.19
2022-12-16T15:12:46.402Z,97752.47
2022-12-16T15:15:49.954Z,97744.84
2022-12-16T15:19:03.417Z,97747.59
2022-12-16T15:21:52.852Z,97756.94
2022-12-16T15:24:43.030Z,97752.47
2022-12-16T15:27:40.583Z,97788.84
2022-12-16T15:30:53.194Z,97790.38
2022-12-16T15:33:42.079Z,97796.50
2022-12-16T15:36:38.859Z,97804.31
2022-12-16T15:39:43.105Z,97825.47
2022-12-16T15:42:40.317Z,97823.50
2022-12-16T15:45:57.605Z,97833.56
2022-12-16T15:48:47.769Z,97838.97
2022-12-16T15:51:45.541Z,97844.00
2022-12-16T15:54:43.138Z,97842.75
2022-12-16T15:57:49.180Z,97844.28
2022-12-16T16:00:41.238Z,97840.09
2022-12-16T16:03:36.637Z,97835.50
2022-12-16T16:06:22.496Z,97830.88
2022-12-16T16:09:11.329Z,97847.16
2022-12-16T16:11:56.711Z,97856.34
2022-12-16T16:14:42.467Z,97867.78
2022-12-16T16:17:39.982Z,97869.44
2022-12-16T16:20:26.390Z,97872.22
2022-12-16T16:23:12.047Z,97873.38
2022-12-16T16:26:03.490Z,97872.94
2022-12-16T16:28:49.311Z,97870.72
2022-12-16T16:31:35.243Z,97873.78
2022-12-16T16:34:20.954Z,97872.50
2022-12-16T16:37:13.138Z,97888.94
2022-12-16T16:39:58.545Z,97876.66
2022-12-16T16:42:44.685Z,97879.63
2022-12-16T16:45:30.871Z,97895.63
2022-12-16T16:48:39.161Z,97884.59
2022-12-16T16:51:24.701Z,97907.88
2022-12-16T16:54:10.088Z,97896.88
2022-12-16T16:56:57.243Z,97907.88
2022-12-16T16:59:43.380Z,97902.31
2022-12-16T17:02:41.500Z,97899.41
2022-12-16T17:05:28.742Z,97910.00
2022-12-16T17:08:14.367Z,97921.28
2022-12-16T17:10:59.840Z,97928.63
2022-12-16T17:13:45.223Z,97920.94
2022-12-16T17:16:33.384Z,97904.78
2022-12-16T17:19:21.837Z,97919.00
2022-12-16T17:22:07.564Z,97931.53
2022-12-16T17:24:54.595Z,97924.59
2022-12-16T17:27:43.937Z,97936.31
2022-12-16T17:30:38.808Z,97947.72
2022-12-16T17:33:27.563Z,97950.06
2022-12-16T17:36:13.284Z,97956.88
2022-12-16T17:39:01.303Z,97950.56
2022-12-16T17:41:49.756Z,97965.59
2022-12-16T17:44:36.306Z,97984.13
2022-12-16T17:47:23.353Z,97973.41
2022-12-16T17:50:08.656Z,97981.03
2022-12-16T17:52:54.515Z,97976.13
2022-12-16T17:55:40.103Z,97977.69
2022-12-16T17:58:25.510Z,97987.47
2022-12-16T18:01:11.335Z,97985.22
2022-12-16T18:03:56.902Z,98001.09
2022-12-16T18:06:42.604Z,98006.06
2022-12-16T18:09:28.365Z,98003.13
2022-12-16T18:12:13.927Z,98002.16
2022-12-16T18:14:59.239Z,98008.47
2022-12-16T18:17:44.811Z,98004.72
2022-12-16T18:20:30.363Z,98005.22
2022-12-16T18:23:15.872Z,97998.00
2022-12-16T18:26:01.449Z,98006.06
2022-12-16T18:28:47.036Z,97998.72
2022-12-16T18:31:32.315Z,97999.94
2022-12-16T18:34:17.982Z,98007.88
2022-12-16T18:37:03.679Z,98023.06
2022-12-16T18:39:49.278Z,98007.69
2022-12-16T18:42:35.038Z,98019.00
2022-12-16T18:45:20.703Z,98019.13
2022-12-16T18:48:06.115Z,98030.66
2022-12-16T18:50:51.631Z,98034.59
2022-12-16T18:53:37.620Z,98039.19
2022-12-16T18:56:26.328Z,98036.97
2022-12-16T18:59:12.240Z,98036.09
2022-12-16T19:01:58.715Z,98012.34
2022-12-16T19:04:44.510Z,98026.19
2022-12-16T19:07:33.575Z,98023.78
2022-12-16T19:10:19.437Z,98040.47
2022-12-16T19:13:04.734Z,98042.41
2022-12-16T19:15:50.260Z,98044.72
2022-12-16T19:18:35.880Z,98049.63
2022-12-16T19:21:21.661Z,98065.22
2022-12-16T19:24:07.720Z,98062.38
2022-12-16T19:26:53.342Z,98074.47
2022-12-16T19:29:53.287Z,98063.16
2022-12-16T19:32:39.136Z,98078.25
2022-12-16T19:35:24.758Z,98084.88
2022-12-16T19:38:11.878Z,98081.28
2022-12-16T19:40:57.530Z,98099.31
2022-12-16T19:43:43.046Z,98103.91
2022-12-16T19:46:28.515Z,98111.66
2022-12-16T19:49:14.293Z,98117.50
2022-12-16T19:52:00.089Z,98120.38
2022-12-16T19:54:45.578Z,98112.41
2022-12-16T19:57:31.075Z,98114.91
2022-12-16T20:00:16.721Z,98112.72
2022-12-16T20:03:02.274Z,98117.81
2022-12-16T20:05:47.756Z,98122.22
2022-12-16T20:08:33.982Z,98123.31
2022-12-16T20:11:27.504Z,98120.81
2022-12-16T20:14:15.110Z,98125.25
2022-12-16T20:17:01.044Z,98129.81
2022-12-16T20:19:47.396Z,98126.00
2022-12-16T20:22:32.847Z,98132.75
2022-12-16T20:25:18.324Z,98127.38
2022-12-16T20:28:03.861Z,98142.72
2022-12-16T20:30:49.151Z,98144.03
2022-12-16T20:33:35.405Z,98141.50
2022-12-16T20:36:23.117Z,98130.44
2022-12-16T20:39:08.434Z,98140.81
2022-12-16T20:41:56.227Z,98140.75
2022-12-16T20:44:42.081Z,98150.63
2022-12-16T20:47:27.353Z,98148.75
2022-12-16T20:50:13.034Z,98162.16
2022-12-16T20:52:58.357Z,98156.88
2022-12-16T20:55:43.967Z,98160.47
2022-12-16T20:58:29.376Z,98164.09
2022-12-16T21:01:15.337Z,98164.09
2022-12-16T21:04:00.943Z,98182.31
2022-12-16T21:06:46.306Z,98192.38
2022-12-16T21:09:31.879Z,98189.75
2022-12-16T21:12:17.479Z,98187.88
2022-12-16T21:15:03.065Z,98203.63
2022-12-16T21:17:48.618Z,98211.69
2022-12-16T21:20:34.025Z,98205.09
2022-12-16T21:23:20.950Z,98230.91
2022-12-16T21:26:06.696Z,98207.03
2022-12-16T21:28:52.389Z,98204.97
2022-12-16T21:31:41.759Z,98195.94
2022-12-16T21:34:27.385Z,98202.81
2022-12-16T21:37:12.715Z,98214.84
2022-12-16T21:39:58.013Z,98226.38
2022-12-16T21:42:44.289Z,98216.50
2022-12-16T21:45:30.713Z,98209.31
2022-12-16T21:48:16.333Z,98209.56
2022-12-16T21:51:01.615Z,98211.00
2022-12-16T21:53:47.811Z,98205.22
2022-12-16T21:56:33.824Z,98206.44
2022-12-16T21:59:19.437Z,98213.66
2022-12-16T22:02:04.994Z,98224.78
2022-12-16T22:04:50.477Z,98231.53
2022-12-16T22:07:36.031Z,98219.50
2022-12-16T22:10:23.149Z,98235.97
2022-12-16T22:13:08.644Z,98195.28
2022-12-16T22:15:58.085Z,98249.41
2022-12-16T22:18:46.411Z,98243.66
2022-12-16T22:21:32.171Z,98237.16
2022-12-16T22:24:18.804Z,98250.72
2022-12-16T22:27:04.312Z,98250.72
2022-12-16T22:29:50.634Z,98251.81
2022-12-16T22:32:36.174Z,98249.16
2022-12-16T22:35:21.752Z,98259.47
2022-12-16T22:38:07.068Z,98259.00
2022-12-16T22:40:52.843Z,98266.44
2022-12-16T22:43:49.620Z,98247.13
2022-12-16T22:46:35.822Z,98251.56
2022-12-16T22:49:25.674Z,98254.94
2022-12-16T22:52:10.955Z,98256.13
2022-12-16T22:54:56.687Z,98257.09
2022-12-16T22:57:41.972Z,98247.38
2022-12-16T23:00:28.039Z,98257.34
2022-12-16T23:03:36.068Z,98263.22
2022-12-16T23:06:21.832Z,98255.66
2022-12-16T23:09:07.254Z,98249.16
2022-12-16T23:11:56.706Z,98246.78
2022-12-16T23:14:43.342Z,98247.38
2022-12-16T23:17:30.210Z,98249.06
2022-12-16T23:20:15.456Z,98255.06
2022-12-16T23:23:01.089Z,98252.28
2022-12-16T23:25:46.570Z,98255.88
2022-12-16T23:28:31.964Z,98262.13
2022-12-16T23:31:17.835Z,98268.09
2022-12-16T23:34:03.231Z,98272.94
2022-12-16T23:36:49.100Z,98263.31
2022-12-16T23:39:34.390Z,98267.91
2022-12-16T23:42:20.038Z,98257.09
2022-12-16T23:45:05.566Z,98273.88
2022-12-16T23:47:51.090Z,98275.81
2022-12-16T23:50:37.567Z,98286.25
2022-12-16T23:53:24.453Z,98291.75
2022-12-16T23:56:09.901Z,98296.44
2022-12-16T23:58:56.238Z,98286.72
